createdAt,value
2019-06-26T00:00:02.352Z,89.96
2019-06-26T00:01:02.372Z,89.76
2019-06-26T00:02:02.329Z,90.73
2019-06-26T00:03:02.307Z,90.73
2019-06-26T00:04:02.285Z,91.02
2019-06-26T00:05:02.314Z,90.73
2019-06-26T00:06:02.528Z,91.71
2019-06-26T00:07:02.310Z,90.93
2019-06-26T00:08:02.252Z,91.71
2019-06-26T00:09:02.269Z,91.22
2019-06-26T00:10:02.220Z,91.71
2019-06-26T00:11:02.206Z,91.02
2019-06-26T00:12:02.246Z,91.12
2019-06-26T00:13:02.190Z,91.66
2019-06-26T00:14:02.158Z,91.85
2019-06-26T00:15:02.131Z,92.24
2019-06-26T00:16:02.145Z,92.82
2019-06-26T00:17:02.114Z,93.26
2019-06-26T00:18:02.102Z,93.30
2019-06-26T00:19:02.156Z,93.70
2019-06-26T00:20:02.078Z,93.70
2019-06-26T00:21:02.069Z,93.79
2019-06-26T00:22:02.049Z,93.79
2019-06-26T00:23:02.092Z,93.11
2019-06-26T00:24:02.023Z,93.79
2019-06-26T00:25:02.020Z,93.79
2019-06-26T00:26:02.003Z,93.79
2019-06-26T00:27:01.999Z,94.95
2019-06-26T00:28:01.969Z,95.34
2019-06-26T00:29:01.989Z,95.83
2019-06-26T00:30:01.967Z,96.12
2019-06-26T00:31:01.941Z,97.28
2019-06-26T00:32:01.941Z,97.28
2019-06-26T00:33:01.912Z,97.08
2019-06-26T00:34:01.902Z,97.38
2019-06-26T00:35:01.897Z,98.00
2019-06-26T00:36:01.882Z,98.00
2019-06-26T00:37:01.868Z,97.38
2019-06-26T00:38:01.845Z,97.13
2019-06-26T00:39:01.843Z,96.75
2019-06-26T00:40:01.825Z,96.75
2019-06-26T00:41:01.821Z,98.00
2019-06-26T00:42:01.803Z,98.10
2019-06-26T00:43:01.784Z,97.91
2019-06-26T00:44:01.769Z,98.10
2019-06-26T00:45:01.784Z,98.10
2019-06-26T00:46:01.749Z,98.78
2019-06-26T00:47:01.748Z,98.68
2019-06-26T00:48:01.722Z,99.26
2019-06-26T00:49:01.771Z,99.26
2019-06-26T00:50:01.704Z,98.78
2019-06-26T00:51:01.689Z,99.26
2019-06-26T00:52:01.675Z,99.99
2019-06-26T00:53:01.665Z,99.99
2019-06-26T00:54:01.650Z,99.99
2019-06-26T00:55:01.640Z,99.99
2019-06-26T00:56:01.622Z,99.99
2019-06-26T00:57:01.616Z,99.99
2019-06-26T00:58:01.599Z,99.99
2019-06-26T00:59:01.586Z,99.99
2019-06-26T01:00:01.596Z,99.99
2019-06-26T01:01:01.559Z,99.99
2019-06-26T01:02:01.545Z,99.99
2019-06-26T01:03:01.536Z,99.99
2019-06-26T01:04:01.523Z,99.99
2019-06-26T01:05:01.514Z,99.99
2019-06-26T01:06:01.496Z,99.99
2019-06-26T01:07:01.507Z,99.99
2019-06-26T01:08:01.482Z,99.99
2019-06-26T01:09:01.459Z,99.99
2019-06-26T01:10:01.442Z,99.99
2019-06-26T01:11:01.430Z,99.99
2019-06-26T01:12:01.435Z,99.99
2019-06-26T01:13:01.422Z,99.99
2019-06-26T01:14:01.415Z,99.99
2019-06-26T01:15:01.444Z,99.99
2019-06-26T01:16:01.393Z,99.99
2019-06-26T01:17:01.353Z,99.99
2019-06-26T01:18:01.337Z,99.99
2019-06-26T01:19:01.349Z,99.99
2019-06-26T01:20:01.341Z,99.99
2019-06-26T01:21:01.304Z,99.99
2019-06-26T01:22:01.297Z,99.99
2019-06-26T01:23:01.295Z,99.99
2019-06-26T01:24:01.265Z,99.99
2019-06-26T01:25:01.295Z,99.99
2019-06-26T01:26:01.239Z,99.99
2019-06-26T01:27:01.227Z,99.99
2019-06-26T01:28:01.213Z,99.99
2019-06-26T01:29:01.201Z,99.99
2019-06-26T01:30:01.306Z,99.99
2019-06-26T01:31:35.674Z,99.99
2019-06-26T01:32:01.160Z,99.99
2019-06-26T01:33:01.148Z,99.99
2019-06-26T01:34:01.133Z,99.99
2019-06-26T01:35:01.175Z,99.99
2019-06-26T01:36:01.110Z,99.99
2019-06-26T01:37:01.101Z,99.99
2019-06-26T01:38:01.080Z,99.99
2019-06-26T01:39:01.064Z,99.99
2019-06-26T01:40:01.053Z,99.99
2019-06-26T01:41:01.040Z,99.99
2019-06-26T01:42:01.100Z,99.99
2019-06-26T01:43:01.016Z,99.99
2019-06-26T01:44:13.663Z,99.99
2019-06-26T01:45:00.989Z,99.99
2019-06-26T01:46:00.975Z,99.99
2019-06-26T01:47:00.963Z,99.99
2019-06-26T01:48:00.951Z,99.99
2019-06-26T01:49:00.938Z,99.99
2019-06-26T01:50:00.923Z,99.99
2019-06-26T01:51:00.911Z,99.99
2019-06-26T01:52:00.896Z,99.99
2019-06-26T01:53:00.885Z,99.99
2019-06-26T01:54:00.870Z,99.99
2019-06-26T01:55:00.855Z,99.99
2019-06-26T01:56:00.844Z,99.99
2019-06-26T01:57:00.831Z,99.99
2019-06-26T01:58:00.813Z,99.99
2019-06-26T01:59:00.805Z,99.99
2019-06-26T02:00:00.792Z,99.99
2019-06-26T02:01:00.781Z,99.99
2019-06-26T02:02:00.764Z,99.99
2019-06-26T02:03:00.752Z,99.99
2019-06-26T02:04:00.739Z,99.99
2019-06-26T02:05:00.724Z,99.99
2019-06-26T02:06:00.712Z,99.99
2019-06-26T02:07:00.697Z,99.99
2019-06-26T02:08:00.723Z,99.99
2019-06-26T02:09:00.670Z,99.99
2019-06-26T02:10:00.656Z,99.99
2019-06-26T02:11:00.648Z,99.99
2019-06-26T02:12:00.717Z,99.99
2019-06-26T02:13:00.619Z,99.99
2019-06-26T02:14:00.603Z,99.99
2019-06-26T02:15:00.589Z,99.99
2019-06-26T02:16:00.575Z,99.99
2019-06-26T02:17:00.564Z,99.99
2019-06-26T02:18:00.549Z,99.99
2019-06-26T02:19:00.540Z,99.99
2019-06-26T02:20:00.521Z,99.99
2019-06-26T02:21:00.507Z,99.99
2019-06-26T02:22:00.489Z,99.99
2019-06-26T02:23:00.487Z,99.99
2019-06-26T02:24:00.477Z,99.99
2019-06-26T02:25:00.475Z,99.99
2019-06-26T02:26:00.440Z,99.99
2019-06-26T02:27:00.427Z,99.99
2019-06-26T02:28:00.416Z,99.99
2019-06-26T02:29:00.405Z,99.99
2019-06-26T02:30:00.387Z,99.99
2019-06-26T02:31:00.372Z,99.99
2019-06-26T02:32:00.364Z,99.99
2019-06-26T02:33:00.348Z,99.99
2019-06-26T02:34:00.335Z,99.99
2019-06-26T02:35:00.332Z,99.99
2019-06-26T02:36:00.319Z,99.99
2019-06-26T02:37:00.296Z,99.99
2019-06-26T02:38:00.295Z,99.99
2019-06-26T02:39:00.282Z,99.99
2019-06-26T02:40:00.265Z,99.99
2019-06-26T02:41:00.250Z,99.99
2019-06-26T02:42:00.261Z,99.99
2019-06-26T02:43:00.200Z,99.99
2019-06-26T02:44:00.195Z,99.99
2019-06-26T02:45:00.221Z,99.99
2019-06-26T02:46:00.177Z,99.99
2019-06-26T02:47:17.508Z,99.99
2019-06-26T02:48:00.273Z,99.99
2019-06-26T02:49:00.132Z,99.99
2019-06-26T02:50:00.135Z,99.99
2019-06-26T02:51:00.113Z,99.99
2019-06-26T02:52:00.091Z,99.99
2019-06-26T02:53:00.077Z,99.99
2019-06-26T02:54:00.057Z,99.99
2019-06-26T02:55:00.047Z,99.99
2019-06-26T02:56:00.030Z,99.99
2019-06-26T02:57:00.024Z,99.99
2019-06-26T02:58:00.002Z,99.99
2019-06-26T02:58:59.988Z,99.99
2019-06-26T02:59:59.983Z,99.99
2019-06-26T03:00:59.968Z,99.99
2019-06-26T03:01:59.947Z,99.99
2019-06-26T03:02:59.936Z,99.99
2019-06-26T03:03:59.931Z,99.99
2019-06-26T03:04:59.904Z,99.99
2019-06-26T03:05:59.894Z,99.99
2019-06-26T03:06:59.883Z,99.99
2019-06-26T03:07:59.866Z,99.99
2019-06-26T03:08:59.854Z,99.99
2019-06-26T03:09:59.832Z,99.99
2019-06-26T03:10:59.833Z,99.99
2019-06-26T03:11:59.808Z,99.99
2019-06-26T03:12:59.804Z,99.99
2019-06-26T03:13:59.772Z,99.99
2019-06-26T03:15:08.698Z,99.99
2019-06-26T03:15:59.757Z,99.99
2019-06-26T03:16:59.737Z,99.99
2019-06-26T03:17:59.730Z,99.99
2019-06-26T03:18:59.706Z,99.99
2019-06-26T03:19:59.708Z,99.99
2019-06-26T03:20:59.687Z,99.99
2019-06-26T03:21:59.668Z,99.99
2019-06-26T03:22:59.665Z,99.99
2019-06-26T03:23:59.636Z,99.99
2019-06-26T03:24:59.629Z,99.99
2019-06-26T03:25:59.620Z,99.99
2019-06-26T03:26:59.602Z,99.99
2019-06-26T03:27:59.579Z,99.99
2019-06-26T03:28:59.575Z,99.99
2019-06-26T03:29:59.557Z,99.99
2019-06-26T03:30:59.538Z,99.99
2019-06-26T03:31:59.526Z,99.99
2019-06-26T03:32:59.519Z,99.99
2019-06-26T03:33:59.503Z,99.99
2019-06-26T03:34:59.485Z,99.99
2019-06-26T03:35:59.480Z,99.99
2019-06-26T03:36:59.460Z,99.99
2019-06-26T03:37:59.439Z,99.99
2019-06-26T03:38:59.432Z,99.99
2019-06-26T03:39:59.415Z,99.99
2019-06-26T03:40:59.402Z,99.99
2019-06-26T03:41:59.390Z,99.99
2019-06-26T03:42:59.376Z,99.99
2019-06-26T03:43:59.363Z,99.99
2019-06-26T03:44:59.345Z,99.99
2019-06-26T03:45:59.329Z,99.99
2019-06-26T03:46:59.327Z,99.99
2019-06-26T03:47:59.302Z,99.99
2019-06-26T03:48:59.292Z,99.99
2019-06-26T03:49:59.283Z,99.99
2019-06-26T03:50:59.265Z,99.99
2019-06-26T03:51:59.249Z,99.99
2019-06-26T03:52:59.227Z,99.99
2019-06-26T03:53:59.221Z,99.99
2019-06-26T03:54:59.204Z,99.99
2019-06-26T03:55:59.192Z,99.99
2019-06-26T03:56:59.176Z,99.99
2019-06-26T03:57:59.173Z,99.99
2019-06-26T03:58:59.148Z,99.99
2019-06-26T03:59:59.140Z,99.99
2019-06-26T04:00:59.117Z,99.99
2019-06-26T04:01:59.104Z,99.99
2019-06-26T04:02:59.210Z,99.99
2019-06-26T04:03:59.071Z,99.99
2019-06-26T04:04:59.065Z,99.99
2019-06-26T04:05:59.047Z,99.99
2019-06-26T04:06:59.051Z,99.99
2019-06-26T04:07:59.022Z,99.99
2019-06-26T04:08:59.011Z,99.99
2019-06-26T04:09:58.996Z,99.99
2019-06-26T04:10:58.979Z,99.99
2019-06-26T04:11:58.974Z,99.99
2019-06-26T04:12:58.951Z,99.99
2019-06-26T04:13:58.936Z,99.99
2019-06-26T04:14:58.924Z,99.99
2019-06-26T04:15:58.906Z,99.99
2019-06-26T04:16:58.895Z,99.99
2019-06-26T04:17:58.879Z,99.99
2019-06-26T04:18:58.869Z,99.99
2019-06-26T04:19:58.859Z,99.99
2019-06-26T04:20:58.839Z,99.99
2019-06-26T04:21:58.835Z,99.99
2019-06-26T04:22:58.825Z,99.99
2019-06-26T04:23:58.801Z,99.99
2019-06-26T04:24:58.791Z,99.99
2019-06-26T04:25:58.768Z,99.99
2019-06-26T04:26:58.757Z,99.99
2019-06-26T04:27:58.760Z,99.99
2019-06-26T04:28:58.741Z,99.99
2019-06-26T04:29:58.745Z,99.99
2019-06-26T04:30:58.707Z,99.99
2019-06-26T04:31:58.679Z,99.99
2019-06-26T04:32:58.772Z,99.99
2019-06-26T04:33:58.658Z,99.99
2019-06-26T04:34:58.651Z,99.99
2019-06-26T04:35:58.630Z,99.99
2019-06-26T04:36:58.613Z,99.99
2019-06-26T04:37:58.610Z,99.99
2019-06-26T04:38:58.598Z,99.99
2019-06-26T04:39:58.581Z,99.99
2019-06-26T04:40:58.563Z,99.99
2019-06-26T04:41:58.545Z,99.99
2019-06-26T04:42:58.541Z,99.99
2019-06-26T04:43:58.526Z,99.99
2019-06-26T04:44:58.511Z,99.99
2019-06-26T04:45:58.890Z,99.99
2019-06-26T04:46:58.478Z,99.99
2019-06-26T04:47:58.461Z,99.99
2019-06-26T04:48:58.451Z,99.99
2019-06-26T04:49:58.442Z,99.99
2019-06-26T04:50:58.423Z,99.99
2019-06-26T04:51:58.403Z,99.99
2019-06-26T04:52:58.389Z,99.99
2019-06-26T04:53:58.380Z,99.99
2019-06-26T04:54:58.364Z,99.99
2019-06-26T04:55:58.390Z,99.99
2019-06-26T04:56:58.343Z,99.99
2019-06-26T04:57:58.322Z,99.99
2019-06-26T04:58:58.360Z,99.99
2019-06-26T04:59:58.302Z,99.99
2019-06-26T05:00:58.288Z,99.99
2019-06-26T05:01:58.273Z,99.99
2019-06-26T05:02:58.259Z,99.99
2019-06-26T05:03:58.249Z,99.99
2019-06-26T05:04:58.232Z,99.99
2019-06-26T05:05:58.224Z,99.99
2019-06-26T05:06:58.205Z,99.99
2019-06-26T05:07:58.192Z,99.99
2019-06-26T05:08:58.179Z,99.99
2019-06-26T05:09:58.162Z,99.99
2019-06-26T05:10:58.150Z,99.99
2019-06-26T05:11:58.175Z,99.99
2019-06-26T05:12:58.122Z,99.99
2019-06-26T05:13:58.108Z,99.99
2019-06-26T05:14:58.096Z,99.99
2019-06-26T05:16:10.573Z,99.99
2019-06-26T05:16:58.067Z,99.99
2019-06-26T05:17:58.063Z,99.99
2019-06-26T05:18:58.049Z,99.99
2019-06-26T05:19:58.026Z,99.99
2019-06-26T05:20:58.019Z,99.99
2019-06-26T05:21:58.038Z,99.99
2019-06-26T05:22:57.988Z,99.99
2019-06-26T05:23:57.971Z,99.99
2019-06-26T05:24:57.958Z,99.99
2019-06-26T05:25:57.954Z,99.99
2019-06-26T05:26:57.941Z,99.99
2019-06-26T05:27:57.921Z,99.99
2019-06-26T05:28:57.900Z,99.99
2019-06-26T05:29:57.898Z,99.99
2019-06-26T05:30:57.885Z,99.99
2019-06-26T05:31:57.872Z,99.99
2019-06-26T05:32:57.863Z,99.99
2019-06-26T05:33:57.847Z,99.99
2019-06-26T05:34:57.823Z,99.99
2019-06-26T05:35:57.834Z,99.99
2019-06-26T05:36:57.804Z,99.99
2019-06-26T05:37:57.786Z,99.99
2019-06-26T05:38:57.780Z,99.99
2019-06-26T05:39:57.764Z,99.99
2019-06-26T05:40:57.757Z,99.99
2019-06-26T05:41:57.729Z,99.99
2019-06-26T05:42:57.734Z,99.99
2019-06-26T05:43:57.712Z,99.99
2019-06-26T05:44:57.701Z,99.99
2019-06-26T05:45:57.694Z,99.99
2019-06-26T05:46:57.680Z,99.99
2019-06-26T05:47:57.655Z,99.99
2019-06-26T05:48:57.641Z,99.99
2019-06-26T05:49:57.627Z,99.99
2019-06-26T05:50:57.624Z,99.99
2019-06-26T05:51:57.605Z,99.99
2019-06-26T05:52:57.590Z,99.99
2019-06-26T05:53:57.580Z,99.99
2019-06-26T05:54:57.582Z,99.99
2019-06-26T05:55:57.553Z,99.99
2019-06-26T05:56:57.546Z,99.99
2019-06-26T05:57:57.523Z,99.99
2019-06-26T05:58:57.521Z,99.99
2019-06-26T05:59:57.534Z,99.99
2019-06-26T06:00:57.509Z,99.99
2019-06-26T06:01:57.483Z,99.99
2019-06-26T06:02:57.496Z,99.99
2019-06-26T06:03:57.465Z,99.99
2019-06-26T06:04:57.453Z,99.99
2019-06-26T06:05:57.437Z,99.99
2019-06-26T06:06:57.425Z,99.99
2019-06-26T06:07:57.419Z,99.99
2019-06-26T06:08:57.413Z,99.99
2019-06-26T06:09:57.397Z,99.99
2019-06-26T06:10:58.379Z,99.99
2019-06-26T06:11:57.369Z,99.99
2019-06-26T06:12:57.369Z,99.99
2019-06-26T06:13:57.354Z,99.99
2019-06-26T06:14:57.342Z,99.99
2019-06-26T06:15:57.333Z,99.99
2019-06-26T06:16:57.328Z,99.99
2019-06-26T06:17:57.312Z,99.99
2019-06-26T06:18:57.295Z,99.99
2019-06-26T06:19:57.293Z,99.99
2019-06-26T06:20:57.283Z,99.99
2019-06-26T06:21:57.273Z,99.99
2019-06-26T06:22:57.264Z,99.99
2019-06-26T06:23:57.259Z,99.99
2019-06-26T06:24:57.247Z,99.99
2019-06-26T06:25:57.237Z,99.99
2019-06-26T06:26:57.229Z,99.99
2019-06-26T06:27:57.217Z,99.99
2019-06-26T06:28:57.213Z,99.99
2019-06-26T06:29:57.205Z,99.99
2019-06-26T06:30:57.194Z,99.99
2019-06-26T06:31:57.189Z,99.99
2019-06-26T06:32:57.178Z,99.99
2019-06-26T06:33:57.167Z,99.99
2019-06-26T06:34:57.160Z,99.99
2019-06-26T06:35:57.158Z,99.99
2019-06-26T06:36:57.146Z,99.99
2019-06-26T06:37:57.135Z,99.02
2019-06-26T06:38:57.127Z,98.83
2019-06-26T06:39:57.122Z,98.44
2019-06-26T06:40:57.120Z,98.93
2019-06-26T06:41:57.101Z,98.05
2019-06-26T06:42:57.097Z,99.02
2019-06-26T06:43:57.090Z,98.15
2019-06-26T06:44:57.084Z,99.22
2019-06-26T06:45:57.076Z,99.02
2019-06-26T06:47:03.801Z,97.96
2019-06-26T06:47:57.064Z,98.35
2019-06-26T06:48:57.047Z,97.81
2019-06-26T06:49:57.067Z,96.84
2019-06-26T06:50:57.068Z,96.84
2019-06-26T06:51:57.028Z,97.81
2019-06-26T06:52:57.028Z,97.13
2019-06-26T06:53:57.023Z,97.13
2019-06-26T06:54:57.013Z,96.26
2019-06-26T06:55:57.006Z,95.58
2019-06-26T06:56:57.000Z,95.97
2019-06-26T06:57:56.995Z,95.10
2019-06-26T06:58:56.986Z,95.10
2019-06-26T06:59:56.983Z,95.10
2019-06-26T07:00:56.975Z,96.06
2019-06-26T07:01:56.970Z,95.00
2019-06-26T07:02:57.018Z,94.90
2019-06-26T07:03:56.966Z,95.10
2019-06-26T07:04:56.953Z,96.45
2019-06-26T07:05:56.945Z,94.61
2019-06-26T07:06:58.820Z,94.42
2019-06-26T07:07:56.944Z,94.23
2019-06-26T07:08:56.932Z,94.61
2019-06-26T07:10:05.592Z,94.90
2019-06-26T07:12:00.908Z,94.03
2019-06-26T07:13:00.882Z,94.61
2019-06-26T07:15:05.330Z,94.03
2019-06-26T07:16:05.319Z,93.98
2019-06-26T07:17:19.311Z,93.01
2019-06-26T07:18:05.309Z,94.76
2019-06-26T07:19:05.308Z,93.20
2019-06-26T07:20:05.301Z,93.88
2019-06-26T07:21:05.291Z,93.98
2019-06-26T07:22:07.335Z,92.72
2019-06-26T07:23:05.287Z,93.20
2019-06-26T07:24:05.283Z,92.82
2019-06-26T07:25:05.278Z,92.43
2019-06-26T07:26:05.270Z,92.14
2019-06-26T07:27:05.262Z,92.23
2019-06-26T07:28:05.273Z,91.36
2019-06-26T07:29:05.335Z,91.75
2019-06-26T07:30:05.244Z,91.75
2019-06-26T07:31:05.238Z,91.65
2019-06-26T07:32:05.236Z,91.17
2019-06-26T07:33:05.228Z,92.23
2019-06-26T07:34:05.220Z,91.55
2019-06-26T07:35:05.216Z,92.23
2019-06-26T07:36:05.235Z,92.04
2019-06-26T07:37:05.199Z,92.23
2019-06-26T07:38:05.194Z,92.52
2019-06-26T07:39:05.189Z,92.23
2019-06-26T07:40:05.180Z,91.27
2019-06-26T07:41:05.173Z,91.55
2019-06-26T07:42:05.165Z,91.94
2019-06-26T07:43:05.210Z,92.04
2019-06-26T07:44:05.150Z,91.17
2019-06-26T07:45:05.228Z,90.97
2019-06-26T07:46:05.142Z,90.68
2019-06-26T07:47:18.399Z,90.48
2019-06-26T07:48:05.120Z,91.17
2019-06-26T07:49:05.110Z,90.88
2019-06-26T07:50:05.104Z,91.02
2019-06-26T07:51:05.098Z,91.27
2019-06-26T07:52:05.086Z,91.02
2019-06-26T07:53:05.076Z,90.00
2019-06-26T07:54:05.126Z,89.52
2019-06-26T07:55:05.060Z,90.14
2019-06-26T07:56:05.055Z,90.05
2019-06-26T07:57:05.042Z,90.53
2019-06-26T07:58:05.033Z,90.24
2019-06-26T07:59:05.028Z,89.27
2019-06-26T08:00:05.201Z,89.17
2019-06-26T08:01:05.070Z,90.67
2019-06-26T08:02:05.006Z,89.61
2019-06-26T08:03:04.992Z,89.22
2019-06-26T08:04:05.001Z,89.03
2019-06-26T08:05:04.970Z,88.73
2019-06-26T08:06:04.961Z,89.41
2019-06-26T08:07:04.952Z,87.22
2019-06-26T08:08:04.945Z,87.90
2019-06-26T08:09:04.936Z,87.37
2019-06-26T08:10:04.926Z,88.83
2019-06-26T08:11:06.545Z,88.34
2019-06-26T08:12:04.908Z,88.05
2019-06-26T08:13:04.898Z,88.68
2019-06-26T08:14:04.894Z,87.22
2019-06-26T08:15:04.880Z,88.00
2019-06-26T08:16:04.873Z,88.58
2019-06-26T08:17:04.872Z,87.81
2019-06-26T08:18:04.868Z,87.22
2019-06-26T08:19:04.844Z,88.24
2019-06-26T08:20:04.834Z,86.98
2019-06-26T08:21:12.069Z,85.81
2019-06-26T08:22:04.815Z,84.64
2019-06-26T08:23:04.808Z,85.22
2019-06-26T08:24:04.799Z,83.67
2019-06-26T08:25:04.788Z,83.18
2019-06-26T08:26:04.789Z,83.67
2019-06-26T08:27:04.772Z,83.57
2019-06-26T08:28:04.764Z,85.22
2019-06-26T08:29:04.768Z,84.06
2019-06-26T08:30:04.747Z,85.03
2019-06-26T08:31:04.732Z,86.10
2019-06-26T08:32:04.724Z,84.35
2019-06-26T08:33:04.716Z,83.86
2019-06-26T08:34:04.732Z,84.83
2019-06-26T08:35:04.697Z,84.68
2019-06-26T08:36:04.688Z,83.32
2019-06-26T08:37:04.677Z,83.86
2019-06-26T08:38:12.612Z,83.51
2019-06-26T08:39:04.661Z,84.88
2019-06-26T08:40:04.652Z,83.91
2019-06-26T08:41:04.641Z,83.71
2019-06-26T08:42:04.631Z,83.12
2019-06-26T08:43:04.624Z,82.54
2019-06-26T08:44:04.618Z,83.03
2019-06-26T08:45:04.671Z,82.15
2019-06-26T08:46:04.596Z,84.92
2019-06-26T08:47:04.590Z,80.99
2019-06-26T08:48:18.947Z,81.96
2019-06-26T08:49:04.594Z,81.86
2019-06-26T08:50:04.880Z,81.67
2019-06-26T08:51:04.562Z,82.25
2019-06-26T08:52:04.565Z,81.86
2019-06-26T08:53:04.531Z,82.25
2019-06-26T08:54:04.903Z,81.86
2019-06-26T08:55:04.515Z,82.84
2019-06-26T08:56:05.163Z,82.84
2019-06-26T08:57:04.523Z,82.29
2019-06-26T08:58:04.492Z,82.39
2019-06-26T08:59:04.657Z,82.45
2019-06-26T09:00:04.480Z,82.39
2019-06-26T09:01:04.468Z,82.54
2019-06-26T09:02:04.453Z,81.90
2019-06-26T09:03:04.464Z,81.76
2019-06-26T09:04:04.432Z,82.68
2019-06-26T09:05:04.589Z,83.26
2019-06-26T09:06:04.413Z,82.58
2019-06-26T09:07:04.424Z,82.39
2019-06-26T09:08:04.459Z,82.53
2019-06-26T09:09:04.387Z,82.82
2019-06-26T09:10:04.377Z,83.01
2019-06-26T09:11:04.370Z,80.97
2019-06-26T09:12:04.360Z,79.61
2019-06-26T09:13:04.382Z,80.77
2019-06-26T09:14:04.342Z,80.87
2019-06-26T09:15:04.331Z,81.36
2019-06-26T09:16:04.323Z,80.19
2019-06-26T09:17:04.312Z,80.29
2019-06-26T09:18:04.304Z,78.83
2019-06-26T09:19:04.296Z,78.25
2019-06-26T09:20:04.286Z,78.34
2019-06-26T09:21:04.280Z,78.44
2019-06-26T09:22:04.269Z,78.34
2019-06-26T09:23:04.280Z,77.86
2019-06-26T09:24:04.268Z,78.63
2019-06-26T09:25:20.217Z,79.80
2019-06-26T09:26:04.233Z,80.68
2019-06-26T09:27:04.230Z,80.97
2019-06-26T09:28:04.219Z,81.46
2019-06-26T09:29:04.230Z,79.12
2019-06-26T09:30:04.198Z,80.13
2019-06-26T09:31:04.199Z,79.94
2019-06-26T09:32:04.183Z,78.92
2019-06-26T09:33:04.175Z,79.32
2019-06-26T09:34:04.163Z,80.52
2019-06-26T09:35:04.163Z,78.77
2019-06-26T09:36:06.825Z,78.48
2019-06-26T09:37:04.137Z,79.55
2019-06-26T09:38:04.128Z,78.77
2019-06-26T09:39:04.143Z,77.70
2019-06-26T09:40:04.178Z,77.60
2019-06-26T09:41:04.104Z,78.67
2019-06-26T09:42:04.095Z,78.48
2019-06-26T09:43:04.281Z,77.60
2019-06-26T09:44:04.081Z,76.82
2019-06-26T09:45:04.062Z,77.99
2019-06-26T09:46:04.059Z,76.34
2019-06-26T09:47:04.055Z,77.60
2019-06-26T09:48:04.037Z,76.67
2019-06-26T09:49:04.027Z,77.25
2019-06-26T09:50:04.039Z,76.18
2019-06-26T09:51:04.048Z,75.01
2019-06-26T09:52:04.002Z,75.85
2019-06-26T09:53:05.402Z,77.21
2019-06-26T09:54:03.986Z,77.15
2019-06-26T09:55:03.976Z,75.10
2019-06-26T09:56:03.968Z,76.47
2019-06-26T09:57:03.965Z,74.43
2019-06-26T09:58:03.949Z,75.20
2019-06-26T09:59:03.941Z,76.18
2019-06-26T10:00:03.931Z,75.59
2019-06-26T10:01:04.309Z,74.04
2019-06-26T10:02:03.916Z,74.91
2019-06-26T10:03:03.915Z,75.49
2019-06-26T10:04:03.896Z,74.62
2019-06-26T10:05:03.888Z,74.72
2019-06-26T10:06:03.877Z,74.76
2019-06-26T10:07:03.873Z,76.90
2019-06-26T10:08:03.865Z,75.24
2019-06-26T10:09:03.856Z,74.27
2019-06-26T10:10:03.857Z,74.17
2019-06-26T10:11:03.839Z,75.14
2019-06-26T10:12:03.828Z,74.72
2019-06-26T10:13:03.817Z,76.21
2019-06-26T10:14:03.813Z,77.48
2019-06-26T10:15:03.804Z,76.21
2019-06-26T10:16:03.797Z,76.41
2019-06-26T10:17:03.785Z,76.02
2019-06-26T10:18:03.776Z,75.04
2019-06-26T10:19:09.937Z,75.34
2019-06-26T10:20:03.863Z,74.46
2019-06-26T10:21:03.744Z,74.27
2019-06-26T10:22:03.741Z,76.15
2019-06-26T10:23:03.741Z,75.63
2019-06-26T10:24:03.736Z,73.29
2019-06-26T10:25:03.785Z,74.56
2019-06-26T10:26:03.708Z,75.82
2019-06-26T10:27:03.700Z,75.04
2019-06-26T10:28:03.689Z,74.66
2019-06-26T10:29:03.698Z,73.00
2019-06-26T10:30:03.685Z,72.25
2019-06-26T10:31:03.663Z,73.58
2019-06-26T10:32:03.654Z,74.50
2019-06-26T10:33:03.659Z,74.79
2019-06-26T10:34:03.635Z,74.01
2019-06-26T10:35:03.631Z,73.23
2019-06-26T10:36:03.618Z,74.30
2019-06-26T10:37:03.763Z,73.72
2019-06-26T10:38:03.662Z,73.33
2019-06-26T10:39:03.638Z,74.50
2019-06-26T10:40:03.600Z,72.84
2019-06-26T10:41:03.579Z,73.33
2019-06-26T10:42:03.580Z,74.15
2019-06-26T10:43:03.650Z,75.96
2019-06-26T10:44:03.701Z,74.21
2019-06-26T10:45:03.537Z,74.21
2019-06-26T10:46:03.566Z,74.50
2019-06-26T10:47:03.533Z,73.62
2019-06-26T10:48:03.517Z,73.56
2019-06-26T10:49:03.501Z,74.40
2019-06-26T10:50:03.495Z,75.12
2019-06-26T10:51:03.493Z,75.12
2019-06-26T10:52:03.524Z,75.02
2019-06-26T10:53:03.483Z,75.12
2019-06-26T10:54:03.474Z,74.83
2019-06-26T10:55:03.539Z,74.54
2019-06-26T10:56:03.500Z,74.50
2019-06-26T10:57:03.649Z,73.66
2019-06-26T10:58:12.095Z,75.21
2019-06-26T11:00:07.880Z,74.50
2019-06-26T11:01:07.867Z,73.58
2019-06-26T11:02:07.857Z,73.88
2019-06-26T11:03:07.844Z,73.88
2019-06-26T11:04:07.857Z,74.76
2019-06-26T11:05:08.272Z,75.04
2019-06-26T11:06:08.060Z,74.17
2019-06-26T11:07:17.454Z,73.88
2019-06-26T11:09:12.261Z,73.62
2019-06-26T11:10:12.240Z,74.69
2019-06-26T11:11:12.230Z,75.18
2019-06-26T11:12:12.236Z,72.64
2019-06-26T11:13:12.212Z,74.11
2019-06-26T11:14:12.206Z,74.30
2019-06-26T11:15:12.205Z,74.24
2019-06-26T11:16:12.191Z,74.24
2019-06-26T11:17:12.180Z,72.19
2019-06-26T11:18:12.167Z,71.51
2019-06-26T11:19:12.165Z,72.49
2019-06-26T11:20:12.154Z,73.27
2019-06-26T11:21:12.150Z,71.64
2019-06-26T11:22:12.138Z,70.47
2019-06-26T11:23:12.130Z,71.35
2019-06-26T11:24:12.122Z,72.29
2019-06-26T11:25:12.138Z,70.83
2019-06-26T11:26:12.109Z,71.02
2019-06-26T11:27:12.439Z,71.86
2019-06-26T11:28:12.088Z,72.78
2019-06-26T11:29:12.085Z,72.49
2019-06-26T11:30:12.071Z,73.07
2019-06-26T11:31:12.062Z,73.07
2019-06-26T11:32:12.054Z,71.96
2019-06-26T11:33:12.047Z,72.29
2019-06-26T11:34:12.044Z,73.17
2019-06-26T11:35:12.029Z,72.00
2019-06-26T11:36:12.020Z,71.41
2019-06-26T11:37:12.017Z,71.41
2019-06-26T11:38:12.015Z,71.57
2019-06-26T11:39:11.995Z,72.35
2019-06-26T11:40:11.991Z,74.15
2019-06-26T11:41:11.983Z,73.17
2019-06-26T11:42:11.971Z,74.48
2019-06-26T11:43:11.980Z,70.37
2019-06-26T11:44:11.954Z,70.76
2019-06-26T11:45:11.949Z,71.06
2019-06-26T11:46:11.957Z,70.47
2019-06-26T11:47:11.937Z,71.55
2019-06-26T11:48:12.013Z,71.84
2019-06-26T11:49:11.923Z,69.82
2019-06-26T11:50:11.967Z,71.25
2019-06-26T11:51:11.937Z,71.15
2019-06-26T11:52:11.908Z,70.47
2019-06-26T11:53:20.526Z,69.10
2019-06-26T11:55:16.341Z,69.01
2019-06-26T11:56:16.318Z,70.57
2019-06-26T11:57:16.311Z,71.64
2019-06-26T11:58:16.301Z,70.47
2019-06-26T11:59:16.294Z,71.74
2019-06-26T12:00:16.288Z,69.98
2019-06-26T12:01:16.276Z,72.33
2019-06-26T12:02:16.267Z,70.37
2019-06-26T12:03:16.261Z,71.25
2019-06-26T12:04:16.253Z,69.53
2019-06-26T12:05:16.255Z,68.26
2019-06-26T12:06:19.167Z,67.97
2019-06-26T12:07:16.224Z,68.55
2019-06-26T12:08:18.419Z,67.87
2019-06-26T12:09:16.210Z,69.63
2019-06-26T12:10:16.202Z,69.63
2019-06-26T12:11:16.227Z,69.63
2019-06-26T12:12:16.301Z,71.29
2019-06-26T12:13:16.180Z,68.85
2019-06-26T12:14:16.168Z,69.37
2019-06-26T12:15:16.165Z,67.77
2019-06-26T12:16:16.158Z,68.68
2019-06-26T12:17:16.150Z,69.66
2019-06-26T12:18:16.142Z,68.16
2019-06-26T12:19:19.103Z,67.29
2019-06-26T12:20:19.107Z,69.63
2019-06-26T12:21:16.112Z,69.17
2019-06-26T12:22:16.104Z,69.07
2019-06-26T12:23:16.097Z,68.49
2019-06-26T12:24:16.090Z,67.90
2019-06-26T12:25:16.081Z,67.35
2019-06-26T12:26:16.131Z,69.56
2019-06-26T12:27:16.067Z,68.91
2019-06-26T12:28:16.056Z,68.13
2019-06-26T12:29:16.098Z,65.78
2019-06-26T12:30:16.041Z,66.76
2019-06-26T12:31:16.035Z,67.83
2019-06-26T12:32:16.029Z,67.44
2019-06-26T12:33:16.016Z,65.88
2019-06-26T12:34:16.013Z,66.86
2019-06-26T12:35:16.016Z,67.44
2019-06-26T12:36:16.063Z,67.05
2019-06-26T12:37:16.045Z,67.05
2019-06-26T12:38:15.981Z,66.86
2019-06-26T12:39:15.976Z,67.68
2019-06-26T12:40:16.106Z,66.30
2019-06-26T12:41:16.383Z,65.39
2019-06-26T12:42:15.948Z,64.61
2019-06-26T12:43:15.939Z,65.30
2019-06-26T12:44:15.937Z,65.20
2019-06-26T12:45:15.924Z,64.61
2019-06-26T12:46:18.261Z,65.39
2019-06-26T12:47:15.913Z,68.13
2019-06-26T12:48:16.469Z,67.29
2019-06-26T12:49:15.894Z,65.52
2019-06-26T12:50:15.889Z,64.64
2019-06-26T12:51:15.882Z,65.36
2019-06-26T12:52:17.111Z,64.61
2019-06-26T12:53:15.962Z,64.44
2019-06-26T12:54:15.867Z,63.27
2019-06-26T12:55:15.859Z,64.08
2019-06-26T12:56:15.850Z,63.01
2019-06-26T12:57:15.850Z,61.73